createdAt,value
2024-02-21T00:00:21.811Z,71.02
2024-02-21T00:05:23.415Z,71.12
2024-02-21T00:10:26.489Z,71.29
2024-02-21T00:15:28.228Z,72.46
2024-02-21T00:20:29.879Z,72.68
2024-02-21T00:25:32.870Z,72.97
2024-02-21T00:30:34.453Z,71.75
2024-02-21T00:35:36.100Z,72.02
2024-02-21T00:40:38.973Z,72.15
2024-02-21T00:45:40.540Z,72.36
2024-02-21T00:50:42.225Z,72.42
2024-02-21T00:55:45.097Z,72.88
2024-02-21T01:00:46.622Z,72.55
2024-02-21T01:05:48.237Z,72.58
2024-02-21T01:10:51.276Z,73.53
2024-02-21T01:15:52.964Z,72.86
2024-02-21T01:20:54.473Z,72.86
2024-02-21T01:25:57.514Z,72.63
2024-02-21T01:30:59.175Z,72.62
2024-02-21T01:36:00.860Z,72.67
2024-02-21T01:41:04.188Z,72.44
2024-02-21T01:46:05.839Z,72.53
2024-02-21T01:51:07.449Z,72.71
2024-02-21T01:56:10.927Z,72.76
2024-02-21T02:01:12.611Z,73.51
2024-02-21T02:06:15.322Z,72.44
2024-02-21T02:11:18.502Z,72.70
2024-02-21T02:16:20.064Z,72.73
2024-02-21T02:21:29.808Z,74.38
2024-02-21T02:26:32.736Z,73.04
2024-02-21T02:31:34.330Z,73.48
2024-02-21T02:36:36.827Z,73.09
2024-02-21T02:41:39.725Z,73.49
2024-02-21T02:46:41.480Z,73.31
2024-02-21T02:51:43.310Z,73.44
2024-02-21T02:56:46.217Z,73.16
2024-02-21T03:01:47.840Z,73.35
2024-02-21T03:06:49.351Z,73.53
2024-02-21T03:11:52.228Z,73.45
2024-02-21T03:16:53.912Z,73.10
2024-02-21T03:21:55.631Z,73.28
2024-02-21T03:26:58.545Z,72.88
2024-02-21T03:32:00.195Z,73.42
2024-02-21T03:37:01.966Z,73.36
2024-02-21T03:42:05.504Z,72.94
2024-02-21T03:47:07.135Z,73.67
2024-02-21T03:52:08.634Z,73.82
2024-02-21T03:57:11.601Z,73.79
2024-02-21T04:02:13.292Z,73.82
2024-02-21T04:07:15.209Z,73.79
2024-02-21T04:12:18.147Z,74.01
2024-02-21T04:17:19.684Z,74.53
2024-02-21T04:22:21.550Z,75.03
2024-02-21T04:27:24.477Z,75.14
2024-02-21T04:32:26.141Z,75.59
2024-02-21T04:37:27.847Z,75.55
2024-02-21T04:42:30.819Z,75.96
2024-02-21T04:47:32.451Z,76.41
2024-02-21T04:52:34.066Z,76.04
2024-02-21T04:57:36.970Z,76.18
2024-02-21T05:02:38.596Z,77.65
2024-02-21T05:07:40.077Z,76.94
2024-02-21T05:12:43.017Z,77.61
2024-02-21T05:17:44.752Z,77.93
2024-02-21T05:22:46.404Z,78.75
2024-02-21T05:27:52.099Z,78.80
2024-02-21T05:32:53.700Z,78.93
2024-02-21T05:37:55.269Z,79.40
2024-02-21T05:42:58.161Z,80.50
2024-02-21T05:47:59.901Z,81.24
2024-02-21T05:53:01.708Z,80.35
2024-02-21T05:58:04.778Z,80.02
2024-02-21T06:03:06.356Z,80.37
2024-02-21T06:08:07.947Z,80.81
2024-02-21T06:13:11.015Z,81.40
2024-02-21T06:18:12.885Z,80.78
2024-02-21T06:23:16.844Z,80.61
2024-02-21T06:28:19.761Z,80.45
2024-02-21T06:33:21.489Z,80.18
2024-02-21T06:38:23.282Z,80.04
2024-02-21T06:43:26.262Z,80.49
2024-02-21T06:48:27.866Z,79.92
2024-02-21T06:53:29.798Z,79.53
2024-02-21T06:58:32.724Z,79.38
2024-02-21T07:03:34.271Z,79.08
2024-02-21T07:08:36.015Z,77.61
2024-02-21T07:13:39.062Z,77.43
2024-02-21T07:18:40.658Z,76.31
2024-02-21T07:23:42.558Z,75.39
2024-02-21T07:28:45.465Z,76.10
2024-02-21T07:33:47.036Z,75.33
2024-02-21T07:38:48.608Z,75.27
2024-02-21T07:43:51.597Z,74.50
2024-02-21T07:48:53.273Z,73.52
2024-02-21T07:53:54.888Z,73.39
2024-02-21T07:58:57.857Z,73.11
2024-02-21T08:03:59.678Z,72.94
2024-02-21T08:09:01.208Z,72.08
2024-02-21T08:14:04.151Z,72.07
2024-02-21T08:19:05.727Z,71.36
2024-02-21T08:24:07.310Z,71.32
2024-02-21T08:29:10.343Z,70.55
2024-02-21T08:34:11.965Z,70.26
2024-02-21T08:39:13.523Z,69.65
2024-02-21T08:44:16.425Z,69.46
2024-02-21T08:49:17.976Z,69.28
2024-02-21T08:54:19.542Z,68.70
2024-02-21T08:59:22.431Z,68.72
2024-02-21T09:04:24.022Z,68.45
2024-02-21T09:09:27.962Z,67.74
2024-02-21T09:14:32.572Z,68.40
2024-02-21T09:19:36.496Z,68.41
2024-02-21T09:24:38.138Z,67.42
2024-02-21T09:29:41.178Z,68.42
2024-02-21T09:34:42.973Z,68.16
2024-02-21T09:39:44.688Z,67.46
2024-02-21T09:44:47.609Z,67.27
2024-02-21T09:49:49.333Z,67.89
2024-02-21T09:54:50.975Z,67.18
2024-02-21T09:59:53.865Z,67.13
2024-02-21T10:04:55.445Z,66.64
2024-02-21T10:10:01.857Z,65.66
2024-02-21T10:15:06.271Z,66.39
2024-02-21T10:20:08.646Z,64.21
2024-02-21T10:25:10.799Z,63.23
2024-02-21T10:30:15.581Z,62.76
2024-02-21T10:35:27.124Z,63.42
2024-02-21T10:40:30.189Z,62.48
2024-02-21T10:45:36.202Z,62.01
2024-02-21T10:50:48.460Z,61.33
2024-02-21T10:55:59.569Z,60.14
2024-02-21T11:01:04.149Z,60.00
2024-02-21T11:06:06.425Z,60.79
2024-02-21T11:11:09.311Z,58.87
2024-02-21T11:16:23.380Z,58.92
2024-02-21T11:21:34.394Z,57.77
2024-02-21T11:26:38.677Z,57.81
2024-02-21T11:31:42.411Z,58.29
2024-02-21T11:36:51.283Z,57.34
2024-02-21T11:42:05.641Z,57.76
2024-02-21T11:47:09.187Z,57.96
2024-02-21T11:52:10.788Z,57.52
2024-02-21T11:57:12.322Z,57.16
2024-02-21T12:02:15.625Z,58.14
2024-02-21T12:07:17.317Z,56.98
2024-02-21T12:12:21.592Z,56.86
2024-02-21T12:17:24.812Z,56.98
2024-02-21T12:22:30.004Z,56.70
2024-02-21T12:27:31.688Z,57.08
2024-02-21T12:32:35.004Z,56.91
2024-02-21T12:37:39.680Z,56.81
2024-02-21T12:42:41.678Z,55.02
2024-02-21T12:47:44.574Z,54.28
2024-02-21T12:52:46.350Z,54.73
2024-02-21T12:57:47.896Z,53.99
2024-02-21T13:02:50.726Z,53.13
2024-02-21T13:07:52.382Z,54.02
2024-02-21T13:12:53.907Z,52.89
2024-02-21T13:17:57.420Z,53.28
2024-02-21T13:22:59.043Z,52.21
2024-02-21T13:28:00.646Z,52.98
2024-02-21T13:33:03.735Z,51.31
2024-02-21T13:38:05.377Z,50.78
2024-02-21T13:43:09.394Z,50.19
2024-02-21T13:48:13.667Z,50.23
2024-02-21T13:53:15.251Z,51.77
2024-02-21T13:58:17.796Z,50.43
2024-02-21T14:03:20.813Z,49.60
2024-02-21T14:08:22.399Z,51.25
2024-02-21T14:13:24.214Z,50.91
2024-02-21T14:18:27.353Z,52.04
2024-02-21T14:23:28.937Z,51.36
2024-02-21T14:28:30.545Z,51.92
2024-02-21T14:33:33.645Z,53.19
2024-02-21T14:38:35.307Z,52.76
2024-02-21T14:43:36.940Z,52.65
2024-02-21T14:48:40.001Z,53.38
2024-02-21T14:53:41.661Z,53.81
2024-02-21T14:58:43.197Z,54.10
2024-02-21T15:03:46.223Z,53.75
2024-02-21T15:08:47.875Z,54.97
2024-02-21T15:13:49.580Z,54.33
2024-02-21T15:18:52.502Z,54.72
2024-02-21T15:23:55.181Z,54.01
2024-02-21T15:28:56.985Z,54.56
2024-02-21T15:33:59.966Z,55.50
2024-02-21T15:39:01.744Z,55.47
2024-02-21T15:44:03.342Z,55.86
2024-02-21T15:49:06.361Z,55.75
2024-02-21T15:54:08.045Z,55.97
2024-02-21T15:59:09.635Z,55.80
2024-02-21T16:04:12.689Z,56.10
2024-02-21T16:09:14.237Z,56.54
2024-02-21T16:14:15.833Z,57.27
2024-02-21T16:19:18.991Z,57.32
2024-02-21T16:24:20.609Z,56.81
2024-02-21T16:29:23.231Z,56.58
2024-02-21T16:34:26.155Z,57.20
2024-02-21T16:39:27.960Z,57.58
2024-02-21T16:44:29.653Z,57.33
2024-02-21T16:49:35.801Z,58.06
2024-02-21T16:54:38.734Z,58.50
2024-02-21T16:59:40.370Z,58.26
2024-02-21T17:04:43.614Z,58.73
2024-02-21T17:09:45.272Z,59.17
2024-02-21T17:14:48.139Z,59.35
2024-02-21T17:19:51.334Z,60.21
2024-02-21T17:24:52.950Z,60.30
2024-02-21T17:29:54.712Z,61.05
2024-02-21T17:34:57.686Z,61.13
2024-02-21T17:39:59.311Z,61.20
2024-02-21T17:45:00.955Z,60.90
2024-02-21T17:50:04.606Z,61.03
2024-02-21T17:55:06.676Z,60.52
2024-02-21T18:00:08.728Z,61.39
2024-02-21T18:05:11.881Z,61.00
2024-02-21T18:10:13.847Z,60.99
2024-02-21T18:15:15.519Z,60.66
2024-02-21T18:20:19.486Z,61.08
2024-02-21T18:25:21.014Z,61.38
2024-02-21T18:30:22.571Z,61.45
2024-02-21T18:35:25.446Z,61.65
2024-02-21T18:40:27.122Z,61.78
2024-02-21T18:45:28.762Z,62.13
2024-02-21T18:50:31.764Z,62.13
2024-02-21T18:55:33.556Z,62.44
2024-02-21T19:00:35.110Z,63.00
2024-02-21T19:05:38.163Z,62.72
2024-02-21T19:10:39.788Z,62.58
2024-02-21T19:15:41.497Z,62.74
2024-02-21T19:20:44.405Z,62.70
2024-02-21T19:25:46.081Z,62.46
2024-02-21T19:30:47.754Z,62.54
2024-02-21T19:35:50.778Z,62.60
2024-02-21T19:40:52.652Z,62.35
2024-02-21T19:45:54.256Z,62.63
2024-02-21T19:50:57.233Z,62.58
2024-02-21T19:55:58.907Z,62.26
2024-02-21T20:01:00.558Z,62.07
2024-02-21T20:06:04.064Z,62.37
2024-02-21T20:11:05.747Z,62.17
2024-02-21T20:16:07.628Z,62.22
2024-02-21T20:21:10.447Z,61.68
2024-02-21T20:26:12.095Z,61.91
2024-02-21T20:31:13.701Z,62.79
2024-02-21T20:36:16.648Z,64.22
2024-02-21T20:41:18.479Z,63.46
2024-02-21T20:46:20.121Z,64.79
2024-02-21T20:51:22.967Z,65.12
2024-02-21T20:56:24.630Z,64.30
2024-02-21T21:01:26.277Z,65.10
2024-02-21T21:06:29.272Z,64.99
2024-02-21T21:11:38.783Z,64.91
2024-02-21T21:16:47.615Z,64.91
2024-02-21T21:21:50.522Z,65.13
2024-02-21T21:26:52.525Z,64.88
2024-02-21T21:31:54.086Z,64.93
2024-02-21T21:36:56.899Z,64.62
2024-02-21T21:41:58.410Z,64.53
2024-02-21T21:47:00.023Z,64.36
2024-02-21T21:52:03.172Z,64.19
2024-02-21T21:57:05.495Z,63.51
2024-02-21T22:02:07.163Z,63.77
2024-02-21T22:07:10.097Z,63.33
2024-02-21T22:12:11.680Z,63.72
2024-02-21T22:17:14.794Z,63.53
2024-02-21T22:22:18.601Z,63.43
2024-02-21T22:27:20.259Z,63.57
2024-02-21T22:32:21.897Z,63.03
2024-02-21T22:37:24.733Z,62.42
2024-02-21T22:42:26.272Z,62.66
2024-02-21T22:47:27.814Z,62.80
2024-02-21T22:52:30.997Z,62.90
2024-02-21T22:57:32.963Z,62.75
2024-02-21T23:02:34.526Z,62.54
2024-02-21T23:07:37.466Z,62.85
2024-02-21T23:12:38.963Z,63.58
2024-02-21T23:17:40.494Z,63.48
2024-02-21T23:22:44.198Z,63.05
2024-02-21T23:27:45.822Z,63.05
2024-02-21T23:32:47.405Z,63.51
2024-02-21T23:37:50.289Z,63.24
2024-02-21T23:42:51.812Z,63.62
2024-02-21T23:47:53.306Z,62.93
2024-02-21T23:52:56.194Z,63.26
2024-02-21T23:57:57.746Z,62.80
